D/T METAR WX W/DIR W/SPE G/SPE TEMP DEWP
16/01/19 03:11 EGUL 160311Z AUTO 21012KT 9999 BKN020 08/05 A2977 RMK AO2 SLP085 $ SSW (210°) 13.8mph 8°C 5°C
16/01/19 01:56 EGUL 160156Z AUTO 23014KT 9999 BKN020 OVC035 08/05 A2980 RMK AO2 CIG 020V034 BKN V SCT SLP095 T00810045 $ SW (230°) 16.1mph 8.1°C 4.5°C
16/01/19 00:56 EGUL 160056Z AUTO 22012KT 9999 SCT022 OVC031 08/05 A2982 RMK AO2 SLP101 T00800046 $ SW (220°) 13.8mph 8°C 4.6°C
15/01/19 23:56 EGUL 152356Z AUTO 22010KT 9999 OVC030 08/05 A2984 RMK AO2 SLP108 60000 T00820048 10082 20078 401010018 $ SW (220°) 11.5mph 8.2°C 4.8°C
15/01/19 23:26 EGUL 152326Z AUTO 22013KT 9999 OVC031 08/05 A2985 RMK AO2 SLP112 $ SW (220°) 15.0mph 8°C 5°C
15/01/19 20:56 EGUL 152056Z AUTO 23013KT 9999 BKN037 08/05 A2990 RMK AO2 SLP129 60000 T00810052 57012 $ SW (230°) 15.0mph 8.1°C 5.2°C
15/01/19 19:56 EGUL 151956Z AUTO 23016KT 9999 OVC038 08/05 A2992 RMK AO2 SLP135 T00830052 $ SW (230°) 18.4mph 8.3°C 5.2°C
15/01/19 18:56 EGUL 151856Z AUTO 23015KT 9999 OVC039 09/05 A2992 RMK AO2 DZB1756E02 SLP135 P0000 T00860050 $ SW (230°) 17.3mph 8.6°C 5°C
15/01/19 18:02 EGUL 151802Z AUTO 22014KT 9999 OVC038 09/05 A2993 RMK AO2 DZE02 SLP139 $ SW (220°) 16.1mph 9°C 5°C
15/01/19 17:43 EGUL 151743Z AUTO 22012KT 9999 OVC039 08/05 A2994 RMK AO2 DZB33E43 SLP142 $ SW (220°) 13.8mph 8°C 5°C
15/01/19 16:56 EGUL 151656Z 22009KT 9999 BKN040 08/05 A2995 RMK AO2A SLP146 T00760047 $ SW (220°) 10.4mph 7.6°C 4.7°C
15/01/19 15:56 EGUL 151556Z 23009KT 9999 SCT035 07/05 A2997 RMK AO2A SLP152 T00740049 $ SW (230°) 10.4mph 7.4°C 4.9°C
15/01/19 14:56 EGUL 151456Z 24012KT 9999 SCT035 08/05 A2997 RMK AO2A SLP152 T00830051 57015 $ WSW (240°) 13.8mph 8.3°C 5.1°C
15/01/19 13:56 EGUL 151356Z 24014KT 9999 SCT024 10/05 A2998 RMK AO2A SLP156 T01000054 $ WSW (240°) 16.1mph 10°C 5.4°C
15/01/19 12:56 EGUL 151256Z AUTO 25014G20KT 9999 CLR 10/05 A3000 RMK AO2 DZB18E28 SLP163 P0000 T00990049 $ WSW (250°) 16.1mph 23.0mph 9.9°C 4.9°C
15/01/19 11:56 EGUL 151156Z AUTO 25017G22KT 9999 CLR 10/05 A3002 RMK AO2 DZB46E51 SLP169 P0000 60000 70005 T00950047 10095 20034 58008 $ WSW (250°) 19.6mph 25.3mph 9.5°C 4.7°C
15/01/19 10:56 EGUL 151056Z AUTO 24015KT 9999 CLR 09/05 A3004 RMK AO2 SLP176 T00860046 $ WSW (240°) 17.3mph 8.6°C 4.6°C
15/01/19 09:56 EGUL 150956Z AUTO 25013KT 9999 CLR 07/04 A3004 RMK AO2 SLP176 T00700036 $ WSW (250°) 15.0mph 7°C 3.6°C
15/01/19 08:56 EGUL 150856Z AUTO 23014KT 9999 OVC041 06/03 A3004 RMK AO2 SLP176 T00580028 57008 $ SW (230°) 16.1mph 5.8°C 2.8°C
15/01/19 07:56 EGUL 150756Z AUTO 24011KT 9999 OVC036 05/02 A3005 RMK AO2 SLP180 T00500024 $ WSW (240°) 12.7mph 5°C 2.4°C
15/01/19 06:56 EGUL 150656Z AUTO 23008KT 9999 OVC037 04/02 A3006 RMK AO2 SLP183 T00400015 $ SW (230°) 9.2mph 4°C 1.5°C
15/01/19 05:56 EGUL 150556Z AUTO 23009KT 9999 OVC036 03/01 A3007 RMK AO2 SLP186 T00330010 10042 20018 57011 $ SW (230°) 10.4mph 3.3°C 1°C
15/01/19 04:56 EGUL 150456Z AUTO 23009KT 9999 CLR 02/00 A3008 RMK AO2 SLP190 T00240001 $ SW (230°) 10.4mph 2.4°C 0.1°C
15/01/19 03:56 EGUL 150356Z AUTO 24009KT 9999 CLR 03/00 A3009 RMK AO2 SLP193 T00280004 $ WSW (240°) 10.4mph 2.8°C 0.4°C
15/01/19 02:56 EGUL 150256Z AUTO 23009KT 9999 CLR 02/00 A3010 RMK AO2 SLP196 T00220003 57013 $ SW (230°) 10.4mph 2.2°C 0.3°C
15/01/19 01:56 EGUL 150156Z AUTO 24008KT 9999 CLR 02/00 A3012 RMK AO2 SLP203 T00230002 $ WSW (240°) 9.2mph 2.3°C 0.2°C
15/01/19 00:56 EGUL 150056Z AUTO 25011KT 9999 FEW055 03/01 A3013 RMK AO2 SLP207 T00340011 $ WSW (250°) 12.7mph 3.4°C 1.1°C
14/01/19 23:56 EGUL 142356Z AUTO 25009KT 9999 BKN045 04/02 A3014 RMK AO2 SLP210 60000 T00420017 10054 20026 400790025 57003 $ WSW (250°) 10.4mph 4.2°C 1.7°C
14/01/19 22:56 EGUL 142256Z AUTO 25009KT 9999 OVC045 05/03 A3014 RMK AO2 SLP210 T00500027 $ WSW (250°) 10.4mph 5°C 2.7°C
14/01/19 21:56 EGUL 142156Z 25007KT 9999 SCT050 03/01 A3014 RMK AO2A SLP210 T00300014 $ WSW (250°) 8.1mph 3°C 1.4°C
14/01/19 20:56 EGUL 142056Z AUTO 26007KT 9999 BKN050 05/03 A3015 RMK AO2 SLP213 60000 T00460028 50000 $ W (260°) 8.1mph 4.6°C 2.8°C
14/01/19 19:56 EGUL 141956Z 24007KT 9999 FEW027 SCT055 04/02 A3014 RMK AO2A SLP210 T00400022 $ WSW (240°) 8.1mph 4°C 2.2°C
14/01/19 18:56 EGUL 141856Z 19003KT 9999 SCT055 04/02 A3015 RMK AO2A SLP213 T00350017 $ S (190°) 3.5mph 3.5°C 1.7°C
14/01/19 17:56 EGUL 141756Z 24005KT 9999 SCT055 03/01 A3014 RMK AO2A SLP210 60005 T00270011 10079 20025 51008 $ WSW (240°) 5.8mph 2.7°C 1.1°C
14/01/19 16:56 EGUL 141656Z 26003KT 9999 FEW050 04/02 A3014 RMK AO2A SLP210 T00360015 $ W (260°) 3.5mph 3.6°C 1.5°C
14/01/19 15:56 EGUL 141556Z 00000KT 9999 BKN050 06/03 A3014 RMK AO2A SLP210 T00610031 $ N (0°) 6.1°C 3.1°C
14/01/19 14:56 EGUL 141456Z 31005KT 9999 SCT050 07/03 A3012 RMK AO2A SLP203 60005 T00730028 51007 $ NW (310°) 5.8mph 7.3°C 2.8°C
14/01/19 13:56 EGUL 141356Z AUTO 30006KT 9999 BKN049 07/03 A3011 RMK AO2 RAB1259E09 SLP200 P0005 T00730032 $ WNW (300°) 6.9mph 7.3°C 3.2°C
14/01/19 13:09 EGUL 141309Z 30007KT 9999 FEW023 SCT036 SCT043 BKN050 07/04 A3011 RMK AO2A RAB1259E09 SLP200 $ WNW (300°) 8.1mph 7°C 4°C
14/01/19 11:58 EGUL 141158Z COR AUTO 34006KT 9999 BKN047 07/03 A3010 RMK AO2 SLP196 $ COR 1201 NNW (340°) 6.9mph 7°C 3°C
14/01/19 11:25 EGUL 141125Z COR 31007KT 9999 FEW030 BKN043 07/03 A3010 RMK AO2A SLP196 $ COR 1139 NW (310°) 8.1mph 7°C 3°C
14/01/19 10:56 EGUL 141056Z AUTO 31006KT 9999 SCT030 BKN039 07/03 A3010 RMK AO2 SLP196 T00650031 $ NW (310°) 6.9mph 6.5°C 3.1°C
14/01/19 09:56 EGUL 140956Z AUTO 30006KT 9999 BKN037 06/03 A3008 RMK AO2 DZB0856E0856 SLP190 P0000 T00550025 $ WNW (300°) 6.9mph 5.5°C 2.5°C
14/01/19 08:56 EGUL 140856Z AUTO 27006KT 9999 CLR 04/02 A3006 RMK AO2 DZB46 SLP183 P0000 60000 T00350015 52028 $ W (270°) 6.9mph 3.5°C 1.5°C
14/01/19 07:56 EGUL 140756Z AUTO 29006KT 9999 OVC044 04/02 A3003 RMK AO2 SLP173 T00410020 $ WNW (290°) 6.9mph 4.1°C 2°C
14/01/19 06:56 EGUL 140656Z 27005KT 9999 FEW200 04/01 A3001 RMK AO2A SLP166 T00360011 $ W (270°) 5.8mph 3.6°C 1.1°C
14/01/19 05:56 EGUL 140556Z AUTO 31005KT 9999 CLR 05/02 A2998 RMK AO2 SLP156 T00460018 10064 20041 52019 $ NW (310°) 5.8mph 4.6°C 1.8°C
14/01/19 04:56 EGUL 140456Z AUTO 30009KT 9999 CLR 05/02 A2996 RMK AO2 SLP149 T00510021 $ WNW (300°) 10.4mph 5.1°C 2.1°C
14/01/19 03:56 EGUL 140356Z AUTO 27007KT 9999 CLR 04/02 A2995 RMK AO2 SLP146 T00440019 $ W (270°) 8.1mph 4.4°C 1.9°C
14/01/19 02:56 EGUL 140256Z AUTO 29009KT 9999 CLR 05/02 A2992 RMK AO2 SLP135 T00530023 52018 $ WNW (290°) 10.4mph 5.3°C 2.3°C
14/01/19 01:56 EGUL 140156Z AUTO 29010KT 9999 CLR 06/02 A2991 RMK AO2 SLP132 T00560022 $ WNW (290°) 11.5mph 5.6°C 2.2°C
14/01/19 00:56 EGUL 140056Z AUTO 29011G21KT 9999 CLR 06/02 A2989 RMK AO2 SLP125 T00620021 $ WNW (290°) 12.7mph 24.2mph 6.2°C 2.1°C
13/01/19 23:56 EGUL 132356Z AUTO 29011KT 9999 CLR 06/02 A2987 RMK AO2 SLP118 T00610022 10099 20059 401100059 52016 $ WNW (290°) 12.7mph 6.1°C 2.2°C
13/01/19 22:56 EGUL 132256Z AUTO 29013KT 9999 FEW080 07/03 A2985 RMK AO2 SLP112 T00650026 $ WNW (290°) 15.0mph 6.5°C 2.6°C
13/01/19 21:56 EGUL 132156Z AUTO 29012G19KT 9999 CLR 07/03 A2984 RMK AO2 SLP108 T00690026 $ WNW (290°) 13.8mph 21.9mph 6.9°C 2.6°C
13/01/19 20:56 EGUL 132056Z AUTO 29012KT 9999 CLR 07/02 A2982 RMK AO2 SLP101 T00730022 52014 $ WNW (290°) 13.8mph 7.3°C 2.2°C
13/01/19 19:56 EGUL 131956Z AUTO 29013G19KT 9999 CLR 08/03 A2981 RMK AO2 SLP098 T00800025 $ WNW (290°) 15.0mph 21.9mph 8°C 2.5°C
13/01/19 18:56 EGUL 131856Z AUTO 29017G22KT 9999 CLR 09/03 A2979 RMK AO2 SLP091 T00880032 $ WNW (290°) 19.6mph 25.3mph 8.8°C 3.2°C
13/01/19 17:56 EGUL 131756Z AUTO 30013G19KT 9999 BKN036 BKN047 OVC060 10/06 A2978 RMK AO2 PK WND 29027/25 RAB14E34DZB34E35DZB39E41 SLP088 P0000 60000 T01000062 10109 20098 53007 $ WNW (300°) 15.0mph 21.9mph 10°C 6.2°C
13/01/19 17:41 EGUL 131741Z AUTO 30017G23KT 9999 SCT033 BKN042 BKN060 10/06 A2977 RMK AO2 RAB14E34DZB34E35DZB39E41 SLP084 $ WNW (300°) 19.6mph 26.5mph 10°C 6°C
13/01/19 17:14 EGUL 131714Z AUTO 28015KT 9999 -RA BKN036 BKN060 11/06 A2976 RMK AO2 RAB14 SLP081 $ -RA W (280°) 17.3mph 11°C 6°C
13/01/19 16:52 EGUL 131652Z AUTO 29016G21KT 9999 BKN036 BKN047 BKN060 11/06 A2976 RMK AO2 DZB04E08DZB37E52 SLP081 $ WNW (290°) 18.4mph 24.2mph 11°C 6°C
13/01/19 16:08 EGUL 131608Z AUTO 29012KT 9999 BKN035 OVC046 11/07 A2975 RMK AO2 DZB04E08 SLP078 $ WNW (290°) 13.8mph 11°C 7°C
13/01/19 15:26 EGUL 131526Z AUTO 25012KT 9999 FEW017 SCT030 BKN041 10/08 A2976 RMK AO2 SLP081 $ WSW (250°) 13.8mph 10°C 8°C
13/01/19 15:11 EGUL 131511Z AUTO 25014KT 9999 SCT017 BKN026 BKN033 10/08 A2975 RMK AO2 CIG 026V036 BKN026 V SCT SLP078 $ WSW (250°) 16.1mph 10°C 8°C
13/01/19 14:20 EGUL 131420Z AUTO 27016G22KT 9999 FEW012 SCT018 SCT028 BKN042 10/08 A2976 RMK AO2 DZE05 SLP081 $ W (270°) 18.4mph 25.3mph 10°C 8°C
13/01/19 14:05 EGUL 131405Z AUTO 27016KT 9999 FEW012 BKN017 BKN022 BKN028 BKN041 10/08 A2977 RMK AO2 DZE05 CIG 015V019 CIG 015 RWY06 SLP084 $ W (270°) 18.4mph 10°C 8°C
13/01/19 13:10 EGUL 131310Z AUTO 27020G27KT 9999 -DZ OVC016 11/07 A2977 RMK AO2 DZB10 SLP084 $ -DZ W (270°) 23.0mph 31.1mph 11°C 7°C
13/01/19 12:41 EGUL 131241Z AUTO 27020G26KT 9999 BKN023 OVC060 11/07 A2977 RMK AO2 SLP084 $ W (270°) 23.0mph 29.9mph 11°C 7°C
13/01/19 11:56 EGUL 131156Z AUTO 26021G26KT 9999 FEW060 11/06 A2979 RMK AO2 PK WND 27032/44 SLP091 T01060064 10106 20099 58015 $ W (260°) 24.2mph 29.9mph 10.6°C 6.4°C
13/01/19 10:56 EGUL 131056Z AUTO 27016G23KT 9999 BKN060 11/07 A2983 RMK AO2 SLP105 T01060065 $ W (270°) 18.4mph 26.5mph 10.6°C 6.5°C
13/01/19 10:26 EGUL 131026Z AUTO 27017G22KT 9999 FEW026 10/06 A2983 RMK AO2 SLP105 $ W (270°) 19.6mph 25.3mph 10°C 6°C
13/01/19 09:56 EGUL 130956Z AUTO 27011KT 9999 OVC028 10/06 A2984 RMK AO2 OVC V BKN CIG 027 RWY06 SLP108 T01030064 $ W (270°) 12.7mph 10.3°C 6.4°C
13/01/19 09:41 EGUL 130941Z AUTO 26012KT 9999 BKN028 10/06 A2984 RMK AO2 CIG 027 RWY06 SLP108 $ W (260°) 13.8mph 10°C 6°C
13/01/19 08:56 EGUL 130856Z AUTO 27015KT 9999 OVC025 10/06 A2984 RMK AO2 SLP108 T01030063 57014 $ W (270°) 17.3mph 10.3°C 6.3°C
13/01/19 07:56 EGUL 130756Z AUTO 27015KT 9999 BKN025 10/07 A2986 RMK AO2 SLP115 T01020065 $ W (270°) 17.3mph 10.2°C 6.5°C
13/01/19 07:26 EGUL 130726Z AUTO 27015KT 9999 BKN025 10/06 A2986 RMK AO2 SLP115 $ W (270°) 17.3mph 10°C 6°C
13/01/19 06:56 EGUL 130656Z AUTO 27016KT 9999 OVC024 10/06 A2987 RMK AO2 SLP118 T01020063 $ W (270°) 18.4mph 10.2°C 6.3°C
13/01/19 06:26 EGUL 130626Z AUTO 27013KT 9999 OVC024 10/06 A2987 RMK AO2 OVC V BKN SLP118 $ W (270°) 15.0mph 10°C 6°C
13/01/19 05:56 EGUL 130556Z AUTO 27016G21KT 9999 BKN026 10/06 A2988 RMK AO2 BKN V OVC SLP122 T00990064 10110 20099 57013 $ W (270°) 18.4mph 24.2mph 9.9°C 6.4°C
13/01/19 05:11 EGUL 130511Z AUTO 27012KT 9999 OVC025 10/07 A2989 RMK AO2 SLP125 $ W (270°) 13.8mph 10°C 7°C
13/01/19 04:26 EGUL 130426Z AUTO 26010KT 9999 OVC024 10/07 A2989 RMK AO2 SLP125 $ W (260°) 11.5mph 10°C 7°C
13/01/19 04:11 EGUL 130411Z AUTO 26010KT 9999 BKN025 OVC110 11/07 A2990 RMK AO2 CIG 025V110 BKN V SCT SLP128 $ W (260°) 11.5mph 11°C 7°C
13/01/19 02:56 EGUL 130256Z AUTO 28015G20KT 9999 FEW025 SCT090 11/07 A2992 RMK AO2 SLP135 T01050066 57015 $ W (280°) 17.3mph 23.0mph 10.5°C 6.6°C
13/01/19 01:56 EGUL 130156Z AUTO 27014G21KT 9999 OVC025 11/07 A2993 RMK AO2 SLP139 T01090068 $ W (270°) 16.1mph 24.2mph 10.9°C 6.8°C
13/01/19 01:26 EGUL 130126Z AUTO 28016KT 9999 OVC024 11/07 A2994 RMK AO2 SLP142 $ W (280°) 18.4mph 11°C 7°C
13/01/19 01:11 EGUL 130111Z AUTO 28012KT 9999 BKN025 11/07 A2994 RMK AO2 SLP142 $ W (280°) 13.8mph 11°C 7°C
13/01/19 00:26 EGUL 130026Z AUTO 28017G20KT 9999 OVC025 11/07 A2995 RMK AO2 CIG 024 RWY06 SLP145 $ W (280°) 19.6mph 23.0mph 11°C 7°C
12/01/19 23:56 EGUL 122356Z AUTO 28016KT 9999 OVC021 11/07 A2996 RMK AO2 SLP149 60000 T01050072 10105 20081 401050061 57009 $ W (280°) 18.4mph 10.5°C 7.2°C
12/01/19 22:56 EGUL 122256Z AUTO 27013KT 9999 OVC020 10/07 A2997 RMK AO2 CIG 019 RWY06 SLP152 T01000071 $ W (270°) 15.0mph 10°C 7.1°C
12/01/19 22:26 EGUL 122226Z AUTO 27013KT 9999 OVC019 10/07 A2997 RMK AO2 SLP152 $ W (270°) 15.0mph 10°C 7°C
12/01/19 21:56 EGUL 122156Z AUTO 26012KT 9999 OVC021 09/07 A2998 RMK AO2 SLP156 T00930066 $ W (260°) 13.8mph 9.3°C 6.6°C
12/01/19 21:41 EGUL 122141Z AUTO 26013KT 9999 OVC021 09/06 A2998 RMK AO2 SLP156 $ W (260°) 15.0mph 9°C 6°C
12/01/19 21:11 EGUL 122111Z AUTO 26014KT 9999 OVC020 09/06 A2998 RMK AO2 CIG 017 RWY06 SLP156 $ W (260°) 16.1mph 9°C 6°C
12/01/19 20:26 EGUL 122026Z AUTO 26014KT 9999 OVC019 09/06 A2999 RMK AO2 SLP159 $ W (260°) 16.1mph 9°C 6°C
12/01/19 19:56 EGUL 121956Z AUTO 26013G20KT 9999 OVC020 09/06 A3000 RMK AO2 DZB1856E05 SLP162 P0000 T00860055 $ W (260°) 15.0mph 23.0mph 8.6°C 5.5°C
12/01/19 19:05 EGUL 121905Z AUTO 27014KT 9999 OVC018 08/06 A3001 RMK AO2 DZB1856E05 SLP166 $ W (270°) 16.1mph 8°C 6°C
12/01/19 18:41 EGUL 121841Z AUTO 26012KT 9999 BKN021 BKN026 BKN033 08/05 A3002 RMK AO2 CIG 021V032 BKN021 V FEW SLP169 $ W (260°) 13.8mph 8°C 5°C
12/01/19 17:56 EGUL 121756Z AUTO 27013KT 9999 BKN046 08/05 A3002 RMK AO2 SLP169 T00820053 10094 20082 57005 $ W (270°) 15.0mph 8.2°C 5.3°C
12/01/19 17:11 EGUL 121711Z AUTO 28015G22KT 9999 FEW019 SCT026 08/05 A3003 RMK AO2 SLP173 $ W (280°) 17.3mph 25.3mph 8°C 5°C
12/01/19 16:41 EGUL 121641Z AUTO 28015KT 9999 BKN020 08/05 A3003 RMK AO2 SLP173 $ W (280°) 17.3mph 8°C 5°C
12/01/19 15:56 EGUL 121556Z AUTO 28017KT 9999 OVC070 09/05 A3003 RMK AO2 SLP173 T00870053 $ W (280°) 19.6mph 8.7°C 5.3°C
12/01/19 14:56 EGUL 121456Z AUTO 28017KT 9999 FEW026 SCT085 09/05 A3004 RMK AO2 SLP176 T00910053 55015 $ W (280°) 19.6mph 9.1°C 5.3°C
12/01/19 13:56 EGUL 121356Z AUTO 27015G24KT 9999 SCT095 09/06 A3004 RMK AO2 SLP176 T00940056 $ W (270°) 17.3mph 27.6mph 9.4°C 5.6°C
12/01/19 12:56 EGUL 121256Z AUTO 28015KT 9999 OVC120 09/06 A3007 RMK AO2 SLP186 T00930060 $ W (280°) 17.3mph 9.3°C 6°C
12/01/19 11:56 EGUL 121156Z AUTO 27017KT 9999 FEW120 09/06 A3008 RMK AO2 SLP190 T00920063 10092 20070 57015 $ W (270°) 19.6mph 9.2°C 6.3°C
12/01/19 10:56 EGUL 121056Z AUTO 26014KT 9999 FEW080 SCT130 09/06 A3010 RMK AO2 PK WND 28026/31 SLP196 T00900063 $ W (260°) 16.1mph 9°C 6.3°C
12/01/19 09:56 EGUL 120956Z AUTO 26016KT 9999 BKN046 09/06 A3011 RMK AO2 SLP200 T00890062 $ W (260°) 18.4mph 8.9°C 6.2°C
12/01/19 08:56 EGUL 120856Z AUTO 27015KT 9999 CLR 08/06 A3012 RMK AO2 SLP203 T00820055 57011 $ W (270°) 17.3mph 8.2°C 5.5°C
12/01/19 07:56 EGUL 120756Z AUTO 25010KT 9999 CLR 07/05 A3013 RMK AO2 SLP207 T00720048 $ WSW (250°) 11.5mph 7.2°C 4.8°C
12/01/19 06:56 EGUL 120656Z AUTO 26013KT 9999 FEW019 SCT075 08/05 A3014 RMK AO2 SLP210 T00760049 $ W (260°) 15.0mph 7.6°C 4.9°C
12/01/19 06:41 EGUL 120641Z AUTO 25012KT 9999 SCT019 08/05 A3014 RMK AO2 SLP210 $ WSW (250°) 13.8mph 8°C 5°C
12/01/19 06:11 EGUL 120611Z AUTO 24014KT 9999 BKN020 OVC029 08/05 A3016 RMK AO2 CIG 020V029 BKN V SCT SLP217 $ WSW (240°) 16.1mph 8°C 5°C
12/01/19 05:26 EGUL 120526Z AUTO 24014KT 9999 FEW027 07/04 A3016 RMK AO2 SLP217 $ WSW (240°) 16.1mph 7°C 4°C
12/01/19 04:56 EGUL 120456Z AUTO 24013KT 9999 OVC023 08/04 A3019 RMK AO2 SLP227 T00750041 $ WSW (240°) 15.0mph 7.5°C 4.1°C
12/01/19 04:26 EGUL 120426Z AUTO 24011KT 9999 OVC023 07/04 A3021 RMK AO2 SLP234 $ WSW (240°) 12.7mph 7°C 4°C
12/01/19 03:56 EGUL 120356Z AUTO 24012KT 9999 OVC026 07/04 A3022 RMK AO2 SLP237 T00740038 $ WSW (240°) 13.8mph 7.4°C 3.8°C
12/01/19 02:56 EGUL 120256Z AUTO 25010KT 9999 OVC029 07/03 A3025 RMK AO2 SLP247 T00700034 57018 $ WSW (250°) 11.5mph 7°C 3.4°C
12/01/19 02:41 EGUL 120241Z AUTO 25010KT 9999 OVC029 07/04 A3026 RMK AO2 SLP251 $ WSW (250°) 11.5mph 7°C 4°C
12/01/19 01:56 EGUL 120156Z AUTO 25009KT 9999 OVC036 07/03 A3027 RMK AO2 SLP254 T00680034 $ WSW (250°) 10.4mph 6.8°C 3.4°C
12/01/19 00:56 EGUL 120056Z AUTO 24009KT 9999 OVC032 06/03 A3027 RMK AO2 SLP254 T00620032 $ WSW (240°) 10.4mph 6.2°C 3.2°C
11/01/19 23:56 EGUL 112356Z AUTO 24009KT 9999 OVC033 06/03 A3030 RMK AO2 SLP264 T00610029 10064 20061 400800049 57019 $ WSW (240°) 10.4mph 6.1°C 2.9°C
11/01/19 22:56 EGUL 112256Z AUTO 26009KT 9999 OVC032 06/03 A3033 RMK AO2 SLP274 T00630027 $ W (260°) 10.4mph 6.3°C 2.7°C
11/01/19 21:56 EGUL 112156Z AUTO 26006KT 9999 OVC034 06/03 A3035 RMK AO2 SLP281 T00630029 $ W (260°) 6.9mph 6.3°C 2.9°C
11/01/19 20:56 EGUL 112056Z AUTO 28007KT 9999 OVC032 06/03 A3036 RMK AO2 SLP284 T00640030 57005 $ W (280°) 8.1mph 6.4°C 3°C
11/01/19 19:56 EGUL 111956Z AUTO 29007KT 9999 OVC034 06/04 A3036 RMK AO2 SLP284 T00640036 $ WNW (290°) 8.1mph 6.4°C 3.6°C
11/01/19 18:56 EGUL 111856Z AUTO 27007KT 9999 OVC036 06/04 A3037 RMK AO2 SLP288 T00620039 $ W (270°) 8.1mph 6.2°C 3.9°C
11/01/19 17:56 EGUL 111756Z AUTO 28006KT 9999 OVC037 06/04 A3037 RMK AO2 SLP288 T00630040 10080 20063 56003 $ W (280°) 6.9mph 6.3°C 4°C
11/01/19 16:56 EGUL 111656Z AUTO 00000KT 9999 OVC040 07/04 A3038 RMK AO2 SLP291 T00650043 $ N (0°) 6.5°C 4.3°C
11/01/19 15:56 EGUL 111556Z AUTO 28003KT 9999 OVC042 07/04 A3038 RMK AO2 SLP291 T00700043 $ W (280°) 3.5mph 7°C 4.3°C
11/01/19 14:56 EGUL 111456Z AUTO 30005KT 9999 OVC042 07/04 A3038 RMK AO2 SLP291 T00730043 55004 $ WNW (300°) 5.8mph 7.3°C 4.3°C
11/01/19 13:56 EGUL 111356Z 32005KT 9999 OVC038 07/04 A3038 RMK AO2A SLP291 T00730039 $ NW (320°) 5.8mph 7.3°C 3.9°C
11/01/19 12:56 EGUL 111256Z COR AUTO 30007KT 9999 BKN041 08/05 A3039 RMK AO2 SLP295 T00800048 $ COR 1311 WNW (300°) 8.1mph 8°C 4.8°C
11/01/19 11:56 EGUL 111156Z AUTO 32003KT 9999 FEW026 SCT035 08/05 A3040 RMK AO2 DZB42E54 SLP298 P0000 60000 70001 T00750046 10075 20049 50002 $ NW (320°) 3.5mph 7.5°C 4.6°C
11/01/19 11:54 EGUL 111154Z AUTO 32005KT 9999 FEW026 SCT033 BKN043 07/05 A3040 RMK AO2 DZB42E54 SLP298 $ NW (320°) 5.8mph 7°C 5°C
11/01/19 10:56 EGUL 111056Z AUTO 31003KT 9999 FEW030 OVC042 07/04 A3040 RMK AO2 DZB00E07DZB11E27 SLP298 P0000 T00660044 $ NW (310°) 3.5mph 6.6°C 4.4°C
11/01/19 10:27 EGUL 111027Z AUTO 32004KT 9999 SCT032 BKN041 06/04 A3040 RMK AO2 DZB00E07DZB11E27 SLP298 $ NW (320°) 4.6mph 6°C 4°C
11/01/19 10:11 EGUL 111011Z AUTO 30003KT 9999 -DZ BKN035 BKN050 06/04 A3040 RMK AO2 DZB00E07DZB11 SLP298 $ -DZ WNW (300°) 3.5mph 6°C 4°C
11/01/19 09:20 EGUL 110920Z AUTO 31004KT 9999 OVC050 05/04 A3039 RMK AO2 DZB09E20 SLP295 $ NW (310°) 4.6mph 5°C 4°C
11/01/19 07:56 EGUL 110756Z AUTO 00000KT 9999 OVC055 05/04 A3038 RMK AO2 SLP291 T00500035 $ N (0°) 5°C 3.5°C
11/01/19 06:56 EGUL 110656Z AUTO 00000KT 9999 OVC060 05/04 A3037 RMK AO2 RAB26E35DZB35E37 SLP288 P0000 T00500037 $ N (0°) 5°C 3.7°C
11/01/19 06:37 EGUL 110637Z AUTO 00000KT 9999 BKN055 05/04 A3037 RMK AO2 RAB26E35DZB35E37 SLP288 $ N (0°) 5°C 4°C
11/01/19 05:56 EGUL 110556Z AUTO 30003KT 9999 OVC060 05/04 A3036 RMK AO2 SLP285 60001 T00520037 10068 20052 58002 $ WNW (300°) 3.5mph 5.2°C 3.7°C
11/01/19 04:56 EGUL 110456Z AUTO 32003KT 9999 OVC065 06/04 A3036 RMK AO2 RAE04DZB04E05 SLP285 P0000 T00560041 $ NW (320°) 3.5mph 5.6°C 4.1°C